createdAt,value
2017-09-05T00:01:36.575Z,10.03
2017-09-05T00:04:04.682Z,9.57
2017-09-05T00:06:32.775Z,9.40
2017-09-05T00:12:24.266Z,11.57
2017-09-05T00:18:04.951Z,11.00
2017-09-05T00:20:35.889Z,11.70
2017-09-05T00:23:06.424Z,11.10
2017-09-05T00:25:34.527Z,11.30
2017-09-05T00:28:02.633Z,12.10
2017-09-05T00:30:30.725Z,11.23
2017-09-05T00:32:58.820Z,12.70
2017-09-05T00:35:27.905Z,10.60
2017-09-05T00:37:56.026Z,11.30
2017-09-05T00:40:24.120Z,10.73
2017-09-05T00:42:52.211Z,11.40
2017-09-05T00:45:20.320Z,11.73
2017-09-05T00:47:48.425Z,11.70
2017-09-05T00:50:16.540Z,12.10
2017-09-05T00:52:44.648Z,10.93
2017-09-05T00:55:12.752Z,11.73
2017-09-05T00:57:40.861Z,10.70
2017-09-05T01:00:08.961Z,10.83
2017-09-05T01:02:37.158Z,11.27
2017-09-05T01:05:05.264Z,11.90
2017-09-05T01:07:33.339Z,11.40
2017-09-05T01:10:01.458Z,10.93
2017-09-05T01:12:29.553Z,10.77
2017-09-05T01:14:58.600Z,11.90
2017-09-05T01:17:26.713Z,12.53
2017-09-05T01:19:54.814Z,12.13
2017-09-05T01:22:22.911Z,11.50
2017-09-05T01:24:51.001Z,11.90
2017-09-05T01:27:19.106Z,13.27
2017-09-05T01:29:47.199Z,13.70
2017-09-05T01:32:15.305Z,13.93
2017-09-05T01:34:43.414Z,13.60
2017-09-05T01:37:11.508Z,12.10
2017-09-05T01:39:39.601Z,11.80
2017-09-05T01:42:07.756Z,12.57
2017-09-05T01:44:35.860Z,12.20
2017-09-05T01:47:03.969Z,11.90
2017-09-05T01:49:32.061Z,14.10
2017-09-05T01:52:00.164Z,13.43
2017-09-05T01:54:28.272Z,12.50
2017-09-05T01:56:56.363Z,12.70
2017-09-05T01:59:24.483Z,11.43
2017-09-05T02:01:52.575Z,12.90
2017-09-05T02:04:21.622Z,11.90
2017-09-05T02:06:49.707Z,11.80
2017-09-05T02:09:17.816Z,12.10
2017-09-05T02:11:45.900Z,13.20
2017-09-05T02:14:13.991Z,11.57
2017-09-05T02:16:42.087Z,12.50
2017-09-05T02:19:10.173Z,12.20
2017-09-05T02:21:38.273Z,12.53
2017-09-05T02:24:06.373Z,14.00
2017-09-05T02:26:34.480Z,12.00
2017-09-05T02:29:02.567Z,13.13
2017-09-05T02:31:30.677Z,12.70
2017-09-05T02:33:58.776Z,13.23
2017-09-05T02:36:26.884Z,13.37
2017-09-05T02:38:54.990Z,12.47
2017-09-05T02:41:23.088Z,13.03
2017-09-05T02:43:51.191Z,12.27
2017-09-05T02:46:19.288Z,12.60
2017-09-05T02:48:47.378Z,13.47
2017-09-05T02:51:15.465Z,13.33
2017-09-05T02:53:43.556Z,12.57
2017-09-05T02:56:11.662Z,13.30
2017-09-05T02:58:39.768Z,13.07
2017-09-05T03:01:07.857Z,12.33
2017-09-05T03:03:35.964Z,14.40
2017-09-05T03:06:04.051Z,15.00
2017-09-05T03:08:32.148Z,14.53
2017-09-05T03:11:00.244Z,12.87
2017-09-05T03:13:28.349Z,12.20
2017-09-05T03:15:56.452Z,13.23
2017-09-05T03:18:24.561Z,12.23
2017-09-05T03:20:52.650Z,12.63
2017-09-05T03:23:20.764Z,12.20
2017-09-05T03:25:48.855Z,13.47
2017-09-05T03:28:16.953Z,12.20
2017-09-05T03:30:45.800Z,13.30
2017-09-05T03:33:13.970Z,12.40
2017-09-05T03:35:42.064Z,12.90
2017-09-05T03:38:10.161Z,13.20
2017-09-05T03:40:38.269Z,12.67
2017-09-05T03:43:06.375Z,12.63
2017-09-05T03:45:34.472Z,12.67
2017-09-05T03:48:02.564Z,12.03
2017-09-05T03:50:30.680Z,12.90
2017-09-05T03:52:58.767Z,13.50
2017-09-05T03:55:26.864Z,12.60
2017-09-05T03:57:54.956Z,12.67
2017-09-05T04:00:23.048Z,12.87
2017-09-05T04:02:51.144Z,11.60
2017-09-05T04:05:19.256Z,12.13
2017-09-05T04:07:47.350Z,12.57
2017-09-05T04:10:15.496Z,16.13
2017-09-05T04:12:43.568Z,10.97
2017-09-05T04:15:11.669Z,11.97
2017-09-05T04:17:39.764Z,12.27
2017-09-05T04:20:07.856Z,12.50
2017-09-05T04:22:35.967Z,12.20
2017-09-05T04:25:04.060Z,12.50
2017-09-05T04:27:32.156Z,12.93
2017-09-05T04:30:00.248Z,13.70
2017-09-05T04:32:28.361Z,14.60
2017-09-05T04:34:56.464Z,14.13
2017-09-05T04:37:24.583Z,14.03
2017-09-05T04:39:52.682Z,14.50
2017-09-05T04:42:20.776Z,13.43
2017-09-05T04:44:48.879Z,13.90
2017-09-05T04:47:17.002Z,14.10
2017-09-05T04:49:45.081Z,14.23
2017-09-05T04:52:13.172Z,13.60
2017-09-05T04:54:41.239Z,14.53
2017-09-05T04:57:09.311Z,12.23
2017-09-05T04:59:37.395Z,13.33
2017-09-05T05:02:05.467Z,12.23
2017-09-05T05:04:33.565Z,13.10
2017-09-05T05:07:01.663Z,13.27
2017-09-05T05:09:29.734Z,12.27
2017-09-05T05:11:57.803Z,12.87
2017-09-05T05:14:25.903Z,11.70
2017-09-05T05:16:53.996Z,13.37
2017-09-05T05:19:22.070Z,13.93
2017-09-05T05:21:50.171Z,13.33
2017-09-05T05:24:18.271Z,11.60
2017-09-05T05:26:46.347Z,12.40
2017-09-05T05:29:14.431Z,11.80
2017-09-05T05:31:42.532Z,11.13
2017-09-05T05:34:10.607Z,11.77
2017-09-05T05:36:38.721Z,11.03
2017-09-05T05:39:06.790Z,11.70
2017-09-05T05:41:34.881Z,10.70
2017-09-05T05:44:02.964Z,15.10
2017-09-05T05:46:31.056Z,14.27
2017-09-05T05:48:59.131Z,12.00
2017-09-05T05:51:27.210Z,11.57
2017-09-05T05:53:55.283Z,13.10
2017-09-05T05:56:23.366Z,11.77
2017-09-05T05:58:51.448Z,11.47
2017-09-05T06:01:19.539Z,12.07
2017-09-05T06:03:47.606Z,12.43
2017-09-05T06:06:15.703Z,12.10
2017-09-05T06:08:43.778Z,11.53
2017-09-05T06:11:11.867Z,12.60
2017-09-05T06:13:39.952Z,12.50
2017-09-05T06:16:08.026Z,12.67
2017-09-05T06:18:36.144Z,11.27
2017-09-05T06:21:04.221Z,10.30
2017-09-05T06:23:32.332Z,13.60
2017-09-05T06:26:00.403Z,13.33
2017-09-05T06:28:28.492Z,11.53
2017-09-05T06:30:56.571Z,12.20
2017-09-05T06:33:24.655Z,12.60
2017-09-05T06:35:52.736Z,12.20
2017-09-05T06:38:20.828Z,12.70
2017-09-05T06:40:49.156Z,12.20
2017-09-05T06:43:17.243Z,12.23
2017-09-05T06:45:45.328Z,13.10
2017-09-05T06:48:13.426Z,13.37
2017-09-05T06:50:41.499Z,13.73
2017-09-05T06:53:09.575Z,12.60
2017-09-05T06:55:37.668Z,12.40
2017-09-05T06:58:05.745Z,11.90
2017-09-05T07:00:33.831Z,12.63
2017-09-05T07:03:01.963Z,13.57
2017-09-05T07:05:30.042Z,14.57
2017-09-05T07:07:58.120Z,13.97
2017-09-05T07:10:26.250Z,13.53
2017-09-05T07:12:54.327Z,12.50
2017-09-05T07:15:24.421Z,13.47
2017-09-05T07:17:52.501Z,13.17
2017-09-05T07:20:20.588Z,12.83
2017-09-05T07:22:48.661Z,13.20
2017-09-05T07:25:16.743Z,12.73
2017-09-05T07:27:44.811Z,12.50
2017-09-05T07:30:12.893Z,13.73
2017-09-05T07:32:40.959Z,13.10
2017-09-05T07:35:09.049Z,13.30
2017-09-05T07:37:37.124Z,13.40
2017-09-05T07:40:05.211Z,12.43
2017-09-05T07:42:33.295Z,12.90
2017-09-05T07:45:01.379Z,13.53
2017-09-05T07:47:29.469Z,14.20
2017-09-05T07:49:57.549Z,13.40
2017-09-05T07:52:25.631Z,12.23
2017-09-05T07:54:53.711Z,14.20
2017-09-05T07:57:21.805Z,12.00
2017-09-05T07:59:49.879Z,12.43
2017-09-05T08:02:17.981Z,14.27
2017-09-05T08:04:46.060Z,13.00
2017-09-05T08:07:14.137Z,11.50
2017-09-05T08:09:42.224Z,12.40
2017-09-05T08:12:10.304Z,13.50
2017-09-05T08:14:38.374Z,13.00
2017-09-05T08:17:07.168Z,12.97
2017-09-05T08:19:35.243Z,12.60
2017-09-05T08:22:03.316Z,13.17
2017-09-05T08:24:31.396Z,13.03
2017-09-05T08:26:59.479Z,11.93
2017-09-05T08:29:27.559Z,12.33
2017-09-05T08:31:55.641Z,13.40
2017-09-05T08:34:23.718Z,12.97
2017-09-05T08:36:51.788Z,13.00
2017-09-05T08:39:19.871Z,12.13
2017-09-05T08:41:47.960Z,12.07
2017-09-05T08:44:16.031Z,11.73
2017-09-05T08:46:44.112Z,13.07
2017-09-05T08:49:12.195Z,12.57
2017-09-05T08:51:40.488Z,11.37
2017-09-05T08:54:08.581Z,12.50
2017-09-05T08:56:36.647Z,12.27
2017-09-05T08:59:04.726Z,12.03
2017-09-05T09:01:33.016Z,12.80
2017-09-05T09:04:01.102Z,13.53
2017-09-05T09:06:29.188Z,13.30
2017-09-05T09:08:57.263Z,10.90
2017-09-05T09:11:25.355Z,12.00
2017-09-05T09:13:53.423Z,11.67
2017-09-05T09:16:21.512Z,11.00
2017-09-05T09:18:49.582Z,11.83
2017-09-05T09:21:17.681Z,10.77
2017-09-05T09:23:45.751Z,11.83
2017-09-05T09:26:13.845Z,10.83
2017-09-05T09:28:41.919Z,10.80
2017-09-05T09:31:10.012Z,9.33
2017-09-05T09:33:38.075Z,10.93
2017-09-05T09:36:06.167Z,11.40
2017-09-05T09:38:34.296Z,9.20
2017-09-05T09:41:02.363Z,10.17
2017-09-05T09:43:30.462Z,10.37
2017-09-05T09:45:58.540Z,12.80
2017-09-05T09:48:26.664Z,11.53
2017-09-05T09:50:54.731Z,11.17
2017-09-05T09:53:22.799Z,9.97
2017-09-05T09:55:50.868Z,9.83
2017-09-05T09:58:18.965Z,10.70
2017-09-05T10:00:47.031Z,11.47
2017-09-05T10:03:15.117Z,10.50
2017-09-05T10:05:43.205Z,9.63
2017-09-05T10:08:11.296Z,10.20
2017-09-05T10:10:39.363Z,9.77
2017-09-05T10:13:07.440Z,9.63
2017-09-05T10:15:35.519Z,9.80
2017-09-05T10:18:03.591Z,10.30
2017-09-05T10:20:31.667Z,9.73
2017-09-05T10:22:59.759Z,9.30
2017-09-05T10:25:27.835Z,8.73
2017-09-05T10:27:55.896Z,9.17
2017-09-05T10:30:23.967Z,8.53
2017-09-05T10:32:52.043Z,9.13
2017-09-05T10:35:20.120Z,8.80
2017-09-05T10:37:48.199Z,9.27
2017-09-05T10:40:16.285Z,9.80
2017-09-05T10:42:44.368Z,10.43
2017-09-05T10:45:12.528Z,11.03
2017-09-05T10:47:40.562Z,11.80
2017-09-05T10:50:08.640Z,10.83
2017-09-05T10:52:36.724Z,11.93
2017-09-05T10:55:04.808Z,10.60
2017-09-05T10:57:32.887Z,10.73
2017-09-05T11:00:00.968Z,12.53
2017-09-05T11:02:29.051Z,13.43
2017-09-05T11:04:57.170Z,12.87
2017-09-05T11:07:25.252Z,13.80
2017-09-05T11:09:53.321Z,14.60
2017-09-05T11:12:21.407Z,13.20
2017-09-05T11:14:49.476Z,14.50
2017-09-05T11:17:17.597Z,11.50
2017-09-05T11:19:45.678Z,14.77
2017-09-05T11:22:13.757Z,10.83
2017-09-05T11:24:41.855Z,11.07
2017-09-05T11:27:09.952Z,12.97
2017-09-05T11:29:38.030Z,11.77
2017-09-05T11:32:06.091Z,13.00
2017-09-05T11:34:34.379Z,12.20
2017-09-05T11:37:02.452Z,11.60
2017-09-05T11:39:30.580Z,10.50
2017-09-05T11:41:58.648Z,11.80
2017-09-05T11:44:27.279Z,13.63
2017-09-05T11:46:55.623Z,14.53
2017-09-05T11:49:23.708Z,13.67
2017-09-05T11:51:51.784Z,12.97
2017-09-05T11:54:19.863Z,10.20
2017-09-05T11:56:47.964Z,10.07
2017-09-05T11:59:16.050Z,10.70
2017-09-05T12:01:44.123Z,10.93
2017-09-05T12:04:12.218Z,11.00
2017-09-05T12:06:40.297Z,10.03
2017-09-05T12:09:08.403Z,9.87
2017-09-05T12:11:36.499Z,8.40
2017-09-05T12:14:04.576Z,10.10
2017-09-05T12:16:32.663Z,10.90
2017-09-05T12:19:00.753Z,10.60
2017-09-05T12:21:28.840Z,8.77
2017-09-05T12:23:56.911Z,9.10
2017-09-05T12:26:25.004Z,9.00
2017-09-05T12:28:53.073Z,9.67
2017-09-05T12:31:21.168Z,10.50
2017-09-05T12:33:49.247Z,9.83
2017-09-05T12:36:17.527Z,6.47
2017-09-05T12:38:45.597Z,5.40
2017-09-05T12:41:13.705Z,5.60
2017-09-05T12:43:41.784Z,6.97
2017-09-05T12:46:09.884Z,9.03
2017-09-05T12:48:37.972Z,8.87
2017-09-05T12:51:06.082Z,9.87
2017-09-05T12:53:34.171Z,7.50
2017-09-05T12:56:02.259Z,8.43
2017-09-05T12:58:30.361Z,7.40
2017-09-05T13:00:58.439Z,6.57
2017-09-05T13:03:26.519Z,7.43
2017-09-05T13:05:54.609Z,9.70
2017-09-05T13:08:22.705Z,9.07
2017-09-05T13:10:50.786Z,9.30
2017-09-05T13:13:18.883Z,10.07
2017-09-05T13:15:46.959Z,7.50
2017-09-05T13:18:15.049Z,8.00
2017-09-05T13:20:43.140Z,8.00
2017-09-05T13:23:11.250Z,8.20
2017-09-05T13:25:39.328Z,8.60
2017-09-05T13:28:07.424Z,7.83
2017-09-05T13:30:35.592Z,7.57
2017-09-05T13:33:04.596Z,8.43
2017-09-05T13:35:32.696Z,7.90
2017-09-05T13:38:00.826Z,7.93
2017-09-05T13:40:28.959Z,7.90
2017-09-05T13:42:57.126Z,9.50
2017-09-05T13:45:25.225Z,8.13
2017-09-05T13:47:53.357Z,7.30
2017-09-05T13:50:21.481Z,7.47
2017-09-05T13:52:49.606Z,7.77
2017-09-05T13:55:17.685Z,8.10
2017-09-05T13:57:45.875Z,7.87
2017-09-05T14:00:13.979Z,8.27
2017-09-05T14:02:42.076Z,7.47
2017-09-05T14:05:10.205Z,7.50
2017-09-05T14:07:38.280Z,7.57
2017-09-05T14:10:06.371Z,7.30
2017-09-05T14:12:34.483Z,6.83
2017-09-05T14:15:02.564Z,6.53
2017-09-05T14:17:30.710Z,6.80
2017-09-05T14:19:58.887Z,6.27
2017-09-05T14:22:26.973Z,5.60
2017-09-05T14:24:55.050Z,5.20
2017-09-05T14:27:23.160Z,5.20
2017-09-05T14:29:51.258Z,4.83
2017-09-05T14:32:19.352Z,3.90
2017-09-05T14:34:47.438Z,4.07
2017-09-05T14:37:15.585Z,3.73
2017-09-05T14:39:43.665Z,3.20
2017-09-05T14:42:11.775Z,3.40
2017-09-05T14:44:39.901Z,3.40
2017-09-05T14:47:07.989Z,3.57
2017-09-05T14:49:36.312Z,3.77
2017-09-05T14:52:05.173Z,3.00
2017-09-05T14:54:33.274Z,2.90
2017-09-05T14:57:01.377Z,3.30
2017-09-05T14:59:29.476Z,3.07
2017-09-05T15:01:57.601Z,4.57
2017-09-05T15:04:26.112Z,4.40
2017-09-05T15:06:54.181Z,4.57
2017-09-05T15:09:22.256Z,4.50
2017-09-05T15:11:50.327Z,4.30
2017-09-05T15:14:18.452Z,5.33
2017-09-05T15:16:46.533Z,4.70
2017-09-05T15:19:14.614Z,4.57
2017-09-05T15:21:42.692Z,4.50
2017-09-05T15:24:10.759Z,4.47
2017-09-05T15:26:38.845Z,3.60
2017-09-05T15:29:06.916Z,4.10
2017-09-05T15:31:34.992Z,5.27
2017-09-05T15:34:03.078Z,3.80
2017-09-05T15:36:31.163Z,4.90
2017-09-05T15:38:59.246Z,3.97
2017-09-05T15:41:27.337Z,4.13
2017-09-05T15:43:55.428Z,4.10
2017-09-05T15:46:23.510Z,4.43
2017-09-05T15:48:51.579Z,4.63
2017-09-05T15:51:19.667Z,4.10
2017-09-05T15:53:47.782Z,4.33
2017-09-05T15:56:15.867Z,3.87
2017-09-05T15:58:43.949Z,4.33
2017-09-05T16:01:12.088Z,3.63
2017-09-05T16:03:40.174Z,3.40
2017-09-05T16:06:08.245Z,4.37
2017-09-05T16:08:36.337Z,4.13
2017-09-05T16:11:04.484Z,4.70
2017-09-05T16:13:32.620Z,3.77
2017-09-05T16:16:00.773Z,4.10
2017-09-05T16:18:28.871Z,4.40
2017-09-05T16:20:56.947Z,4.80
2017-09-05T16:23:25.093Z,4.03
2017-09-05T16:25:53.256Z,4.03
2017-09-05T16:28:21.343Z,4.00
2017-09-05T16:30:49.482Z,4.00
2017-09-05T16:33:17.555Z,4.27
2017-09-05T16:35:45.683Z,4.17
2017-09-05T16:38:13.829Z,4.17
2017-09-05T16:40:41.955Z,3.70
2017-09-05T16:43:10.093Z,4.00
2017-09-05T16:45:38.160Z,3.90
2017-09-05T16:48:06.223Z,4.30
2017-09-05T16:50:34.433Z,4.50
2017-09-05T16:53:02.487Z,4.43
2017-09-05T16:55:30.628Z,4.10
2017-09-05T16:57:58.683Z,3.97
2017-09-05T17:00:26.962Z,4.57
2017-09-05T17:02:55.224Z,4.23
2017-09-05T17:05:23.485Z,4.20
2017-09-05T17:07:51.630Z,4.33
2017-09-05T17:10:19.818Z,3.50
2017-09-05T17:12:47.970Z,4.67
2017-09-05T17:15:16.112Z,4.50
2017-09-05T17:17:44.253Z,3.93
2017-09-05T17:20:12.414Z,4.67
2017-09-05T17:22:40.582Z,4.57
2017-09-05T17:25:08.745Z,4.03
2017-09-05T17:27:36.899Z,4.80
2017-09-05T17:30:05.032Z,4.80
2017-09-05T17:32:33.312Z,4.90
2017-09-05T17:35:01.589Z,5.33
2017-09-05T17:37:29.851Z,5.40
2017-09-05T17:39:58.232Z,4.90
2017-09-05T17:42:26.520Z,5.33
2017-09-05T17:44:54.788Z,5.30
2017-09-05T17:47:23.061Z,4.90
2017-09-05T17:49:51.273Z,5.30
2017-09-05T17:52:19.558Z,4.67
2017-09-05T17:54:47.698Z,5.00
2017-09-05T17:57:15.946Z,4.80
2017-09-05T17:59:44.181Z,5.40
2017-09-05T18:02:12.328Z,5.67
2017-09-05T18:04:40.616Z,6.13
2017-09-05T18:07:08.779Z,5.30
2017-09-05T18:09:37.062Z,6.03
2017-09-05T18:12:05.202Z,6.20
2017-09-05T18:14:33.480Z,7.07
2017-09-05T18:17:01.752Z,6.50
2017-09-05T18:19:30.036Z,6.90
2017-09-05T18:21:58.312Z,6.70
2017-09-05T18:24:27.222Z,6.13
2017-09-05T18:26:55.389Z,6.67
2017-09-05T18:29:23.650Z,6.40
2017-09-05T18:31:51.785Z,6.17
2017-09-05T18:34:20.062Z,6.67
2017-09-05T18:36:48.205Z,6.13
2017-09-05T18:39:16.483Z,5.97
2017-09-05T18:41:44.734Z,7.17
2017-09-05T18:44:12.923Z,6.50
2017-09-05T18:46:41.041Z,7.27
2017-09-05T18:49:09.111Z,6.60
2017-09-05T18:51:37.246Z,6.03
2017-09-05T18:54:05.384Z,6.70
2017-09-05T18:56:33.771Z,6.20
2017-09-05T18:59:02.027Z,6.77
2017-09-05T19:01:30.176Z,6.50
2017-09-05T19:03:58.253Z,6.30
2017-09-05T19:06:26.520Z,6.90
2017-09-05T19:08:54.779Z,6.13
2017-09-05T19:11:22.916Z,6.30
2017-09-05T19:13:50.975Z,5.90
2017-09-05T19:16:19.247Z,6.10
2017-09-05T19:18:47.508Z,6.60
2017-09-05T19:21:15.589Z,6.07
2017-09-05T19:23:43.711Z,6.43
2017-09-05T19:26:11.841Z,7.37
2017-09-05T19:28:40.102Z,7.47
2017-09-05T19:31:08.163Z,6.53
2017-09-05T19:33:36.445Z,7.73
2017-09-05T19:36:04.531Z,7.40
2017-09-05T19:38:32.808Z,7.50
2017-09-05T19:41:00.959Z,8.53
2017-09-05T19:43:29.090Z,7.50
2017-09-05T19:45:57.366Z,7.00
2017-09-05T19:48:25.660Z,7.13
2017-09-05T19:50:53.918Z,7.50
2017-09-05T19:53:22.059Z,6.50
2017-09-05T19:55:50.194Z,7.40
2017-09-05T19:58:18.311Z,7.63
2017-09-05T20:00:46.572Z,8.00
2017-09-05T20:03:14.840Z,8.57
2017-09-05T20:05:42.990Z,7.60
2017-09-05T20:08:11.249Z,7.67
2017-09-05T20:10:39.507Z,7.27
2017-09-05T20:13:07.774Z,7.13
2017-09-05T20:15:35.910Z,7.10
2017-09-05T20:18:04.049Z,8.20
2017-09-05T20:20:32.119Z,8.30
2017-09-05T20:23:00.382Z,7.60
2017-09-05T20:25:28.532Z,7.90
2017-09-05T20:27:56.592Z,8.10
2017-09-05T20:30:24.737Z,8.00
2017-09-05T20:32:52.869Z,9.10
2017-09-05T20:35:21.020Z,8.87
2017-09-05T20:37:49.140Z,8.70
2017-09-05T20:40:17.208Z,7.57
2017-09-05T20:42:45.339Z,8.00
2017-09-05T20:45:13.462Z,8.30
2017-09-05T20:47:41.615Z,7.27
2017-09-05T20:50:09.732Z,8.60
2017-09-05T20:52:37.878Z,7.50
2017-09-05T20:55:06.009Z,8.37
2017-09-05T20:57:34.087Z,8.50
2017-09-05T21:00:02.219Z,8.97
2017-09-05T21:02:30.321Z,8.23
2017-09-05T21:04:58.448Z,8.90
2017-09-05T21:07:26.525Z,8.60
2017-09-05T21:09:54.660Z,9.00
2017-09-05T21:12:22.727Z,8.10
2017-09-05T21:14:50.883Z,10.50
2017-09-05T21:17:19.029Z,9.03
2017-09-05T21:19:47.153Z,7.50
2017-09-05T21:22:15.213Z,8.70
2017-09-05T21:24:43.283Z,8.10
2017-09-05T21:27:11.412Z,9.60
2017-09-05T21:29:39.501Z,10.03
2017-09-05T21:32:07.637Z,8.33
2017-09-05T21:34:35.712Z,8.70
2017-09-05T21:37:03.841Z,8.30
2017-09-05T21:39:31.998Z,8.60
2017-09-05T21:42:00.157Z,8.50
2017-09-05T21:44:28.449Z,8.63
2017-09-05T21:46:56.515Z,8.70
2017-09-05T21:49:24.591Z,9.10
2017-09-05T21:51:52.672Z,8.40
2017-09-05T21:54:20.831Z,7.90
2017-09-05T21:56:49.457Z,7.97
2017-09-05T21:59:17.541Z,8.03
2017-09-05T22:01:45.644Z,8.10
2017-09-05T22:04:13.731Z,8.27
2017-09-05T22:06:41.882Z,8.00
2017-09-05T22:09:09.969Z,8.10
2017-09-05T22:11:38.069Z,8.70
2017-09-05T22:14:11.679Z,8.20
2017-09-05T22:16:41.713Z,7.90
2017-09-05T22:19:15.422Z,8.70
2017-09-05T22:21:43.508Z,8.10
2017-09-05T22:24:11.603Z,8.53
2017-09-05T22:29:40.415Z,8.70
2017-09-05T22:32:08.505Z,8.57
2017-09-05T22:34:36.583Z,8.70
2017-09-05T22:37:04.670Z,8.90
2017-09-05T22:39:32.758Z,9.30
2017-09-05T22:42:00.854Z,8.50
2017-09-05T22:44:28.929Z,9.00
2017-09-05T22:46:57.020Z,9.03
2017-09-05T22:49:25.102Z,8.80
2017-09-05T22:51:53.192Z,9.23
2017-09-05T22:54:21.268Z,9.60
2017-09-05T22:56:49.368Z,8.87
2017-09-05T22:59:17.496Z,10.50
2017-09-05T23:01:45.588Z,9.63
2017-09-05T23:04:13.665Z,8.87
2017-09-05T23:06:41.752Z,9.40
2017-09-05T23:09:09.843Z,9.83
2017-09-05T23:11:37.928Z,8.83
2017-09-05T23:14:06.028Z,9.33
2017-09-05T23:16:34.104Z,9.30
2017-09-05T23:19:02.188Z,8.73
2017-09-05T23:21:30.260Z,9.20
2017-09-05T23:23:58.348Z,9.47
2017-09-05T23:26:26.443Z,9.20
2017-09-05T23:28:54.529Z,9.30
2017-09-05T23:31:22.606Z,9.60
2017-09-05T23:33:50.696Z,9.50
2017-09-05T23:36:18.784Z,8.90
2017-09-05T23:38:46.877Z,10.50
2017-09-05T23:41:14.951Z,9.00
2017-09-05T23:43:43.059Z,9.97
2017-09-05T23:46:11.129Z,9.57
2017-09-05T23:48:39.226Z,10.30
2017-09-05T23:51:07.296Z,8.87
2017-09-05T23:53:35.389Z,9.60
2017-09-05T23:56:03.479Z,10.03
2017-09-05T23:58:31.584Z,9.87
